sensor_id;sensor_type;location;lat;lon;timestamp;P1;durP1;ratioP1;P2;durP2;ratioP2
60488;SDS011;46331;49.252;8.904;2023-03-21T00:00:34;13.90;;;3.25;;
60488;SDS011;46331;49.252;8.904;2023-03-21T00:01:14;8.30;;;2.83;;
60488;SDS011;46331;49.252;8.904;2023-03-21T00:01:55;6.43;;;2.72;;
60488;SDS011;46331;49.252;8.904;2023-03-21T00:02:36;7.60;;;2.70;;
60488;SDS011;46331;49.252;8.904;2023-03-21T00:03:16;7.43;;;3.03;;
60488;SDS011;46331;49.252;8.904;2023-03-21T00:03:57;6.80;;;3.20;;
60488;SDS011;46331;49.252;8.904;2023-03-21T00:04:37;8.77;;;3.10;;
60488;SDS011;46331;49.252;8.904;2023-03-21T00:05:18;7.27;;;3.20;;
60488;SDS011;46331;49.252;8.904;2023-03-21T00:06:06;6.70;;;3.00;;
60488;SDS011;46331;49.252;8.904;2023-03-21T00:06:50;6.85;;;2.88;;
60488;SDS011;46331;49.252;8.904;2023-03-21T00:07:30;6.90;;;2.63;;
60488;SDS011;46331;49.252;8.904;2023-03-21T00:08:11;7.53;;;3.13;;
60488;SDS011;46331;49.252;8.904;2023-03-21T00:08:51;7.23;;;3.10;;
60488;SDS011;46331;49.252;8.904;2023-03-21T00:09:32;6.50;;;2.90;;
60488;SDS011;46331;49.252;8.904;2023-03-21T00:10:13;7.07;;;3.00;;
60488;SDS011;46331;49.252;8.904;2023-03-21T00:10:57;6.10;;;2.90;;
60488;SDS011;46331;49.252;8.904;2023-03-21T00:11:38;7.57;;;3.33;;
60488;SDS011;46331;49.252;8.904;2023-03-21T00:12:19;7.03;;;3.10;;
60488;SDS011;46331;49.252;8.904;2023-03-21T00:13:00;6.75;;;2.72;;
60488;SDS011;46331;49.252;8.904;2023-03-21T00:13:41;6.10;;;2.67;;
60488;SDS011;46331;49.252;8.904;2023-03-21T00:14:22;6.47;;;2.85;;
60488;SDS011;46331;49.252;8.904;2023-03-21T00:15:06;8.82;;;3.58;;
60488;SDS011;46331;49.252;8.904;2023-03-21T00:15:48;8.25;;;3.13;;
60488;SDS011;46331;49.252;8.904;2023-03-21T00:16:33;7.95;;;3.05;;
60488;SDS011;46331;49.252;8.904;2023-03-21T00:17:15;7.30;;;3.55;;
60488;SDS011;46331;49.252;8.904;2023-03-21T00:17:56;7.67;;;3.50;;
60488;SDS011;46331;49.252;8.904;2023-03-21T00:18:47;9.43;;;3.80;;
60488;SDS011;46331;49.252;8.904;2023-03-21T00:19:31;7.80;;;3.67;;
60488;SDS011;46331;49.252;8.904;2023-03-21T00:20:12;8.83;;;3.80;;
60488;SDS011;46331;49.252;8.904;2023-03-21T00:20:54;8.48;;;3.80;;
60488;SDS011;46331;49.252;8.904;2023-03-21T00:21:37;8.43;;;3.20;;
60488;SDS011;46331;49.252;8.904;2023-03-21T00:22:18;7.53;;;3.25;;
60488;SDS011;46331;49.252;8.904;2023-03-21T00:22:59;7.37;;;3.20;;
60488;SDS011;46331;49.252;8.904;2023-03-21T00:23:41;6.55;;;3.20;;
60488;SDS011;46331;49.252;8.904;2023-03-21T00:24:22;7.10;;;3.08;;
60488;SDS011;46331;49.252;8.904;2023-03-21T00:25:02;9.27;;;2.90;;
60488;SDS011;46331;49.252;8.904;2023-03-21T00:25:43;8.50;;;3.35;;
60488;SDS011;46331;49.252;8.904;2023-03-21T00:26:24;6.20;;;2.80;;
60488;SDS011;46331;49.252;8.904;2023-03-21T00:27:05;8.57;;;3.20;;
60488;SDS011;46331;49.252;8.904;2023-03-21T00:27:46;7.93;;;3.38;;
60488;SDS011;46331;49.252;8.904;2023-03-21T00:28:27;7.35;;;2.92;;
60488;SDS011;46331;49.252;8.904;2023-03-21T00:29:07;6.23;;;2.67;;
60488;SDS011;46331;49.252;8.904;2023-03-21T00:29:48;7.95;;;2.55;;
60488;SDS011;46331;49.252;8.904;2023-03-21T00:30:31;6.22;;;2.45;;
60488;SDS011;46331;49.252;8.904;2023-03-21T00:31:12;8.07;;;2.70;;
60488;SDS011;46331;49.252;8.904;2023-03-21T00:31:52;6.50;;;3.10;;
60488;SDS011;46331;49.252;8.904;2023-03-21T00:32:33;6.75;;;3.03;;
60488;SDS011;46331;49.252;8.904;2023-03-21T00:33:13;7.20;;;3.30;;
60488;SDS011;46331;49.252;8.904;2023-03-21T00:33:54;6.85;;;3.20;;
60488;SDS011;46331;49.252;8.904;2023-03-21T00:34:37;7.38;;;3.28;;
60488;SDS011;46331;49.252;8.904;2023-03-21T00:35:17;7.87;;;3.60;;
60488;SDS011;46331;49.252;8.904;2023-03-21T00:35:58;9.02;;;3.67;;
60488;SDS011;46331;49.252;8.904;2023-03-21T00:36:40;8.52;;;3.40;;
60488;SDS011;46331;49.252;8.904;2023-03-21T00:37:20;9.07;;;3.67;;
60488;SDS011;46331;49.252;8.904;2023-03-21T00:38:01;7.53;;;3.37;;
60488;SDS011;46331;49.252;8.904;2023-03-21T00:38:41;8.57;;;4.40;;
60488;SDS011;46331;49.252;8.904;2023-03-21T00:39:22;9.05;;;4.25;;
60488;SDS011;46331;49.252;8.904;2023-03-21T00:40:05;10.20;;;3.90;;
60488;SDS011;46331;49.252;8.904;2023-03-21T00:40:49;7.47;;;3.63;;
60488;SDS011;46331;49.252;8.904;2023-03-21T00:41:30;7.20;;;3.70;;
60488;SDS011;46331;49.252;8.904;2023-03-21T00:42:11;8.15;;;3.72;;
60488;SDS011;46331;49.252;8.904;2023-03-21T00:42:51;6.27;;;3.37;;
60488;SDS011;46331;49.252;8.904;2023-03-21T00:43:32;6.60;;;3.05;;
60488;SDS011;46331;49.252;8.904;2023-03-21T00:44:14;6.15;;;3.00;;
60488;SDS011;46331;49.252;8.904;2023-03-21T00:44:55;6.60;;;3.13;;
60488;SDS011;46331;49.252;8.904;2023-03-21T00:45:36;8.00;;;2.90;;
60488;SDS011;46331;49.252;8.904;2023-03-21T00:46:17;7.43;;;3.03;;
60488;SDS011;46331;49.252;8.904;2023-03-21T00:46:58;7.17;;;2.80;;
60488;SDS011;46331;49.252;8.904;2023-03-21T00:47:42;6.60;;;2.70;;
60488;SDS011;46331;49.252;8.904;2023-03-21T00:48:22;6.73;;;2.83;;
60488;SDS011;46331;49.252;8.904;2023-03-21T00:49:03;6.78;;;3.00;;
60488;SDS011;46331;49.252;8.904;2023-03-21T00:49:44;7.55;;;3.00;;
60488;SDS011;46331;49.252;8.904;2023-03-21T00:50:25;6.20;;;2.67;;
60488;SDS011;46331;49.252;8.904;2023-03-21T00:51:10;7.05;;;2.78;;
60488;SDS011;46331;49.252;8.904;2023-03-21T00:51:54;5.97;;;2.78;;
60488;SDS011;46331;49.252;8.904;2023-03-21T00:52:35;6.83;;;2.60;;
60488;SDS011;46331;49.252;8.904;2023-03-21T00:53:16;7.90;;;2.65;;
60488;SDS011;46331;49.252;8.904;2023-03-21T00:53:57;5.53;;;2.50;;
60488;SDS011;46331;49.252;8.904;2023-03-21T00:54:41;5.57;;;2.40;;
60488;SDS011;46331;49.252;8.904;2023-03-21T00:55:22;8.38;;;2.88;;
60488;SDS011;46331;49.252;8.904;2023-03-21T00:56:03;7.68;;;2.60;;
60488;SDS011;46331;49.252;8.904;2023-03-21T00:56:44;5.90;;;2.65;;
60488;SDS011;46331;49.252;8.904;2023-03-21T00:57:24;7.17;;;2.80;;
60488;SDS011;46331;49.252;8.904;2023-03-21T00:58:05;6.38;;;2.60;;
60488;SDS011;46331;49.252;8.904;2023-03-21T00:58:46;8.05;;;2.80;;
60488;SDS011;46331;49.252;8.904;2023-03-21T00:59:26;5.80;;;2.17;;
60488;SDS011;46331;49.252;8.904;2023-03-21T01:00:08;7.88;;;2.90;;
60488;SDS011;46331;49.252;8.904;2023-03-21T01:00:50;4.88;;;2.15;;
60488;SDS011;46331;49.252;8.904;2023-03-21T01:01:30;5.90;;;2.40;;
60488;SDS011;46331;49.252;8.904;2023-03-21T01:02:13;8.02;;;2.92;;
60488;SDS011;46331;49.252;8.904;2023-03-21T01:03:07;6.50;;;2.70;;
60488;SDS011;46331;49.252;8.904;2023-03-21T01:03:50;5.35;;;2.30;;
60488;SDS011;46331;49.252;8.904;2023-03-21T01:04:44;7.07;;;2.55;;
60488;SDS011;46331;49.252;8.904;2023-03-21T01:05:25;6.37;;;2.87;;
60488;SDS011;46331;49.252;8.904;2023-03-21T01:06:27;6.70;;;2.30;;
60488;SDS011;46331;49.252;8.904;2023-03-21T01:07:07;6.30;;;2.47;;
60488;SDS011;46331;49.252;8.904;2023-03-21T01:07:48;6.32;;;2.33;;
60488;SDS011;46331;49.252;8.904;2023-03-21T01:08:33;6.05;;;2.20;;
60488;SDS011;46331;49.252;8.904;2023-03-21T01:09:16;8.23;;;2.72;;
60488;SDS011;46331;49.252;8.904;2023-03-21T01:09:59;7.95;;;2.45;;
60488;SDS011;46331;49.252;8.904;2023-03-21T01:10:40;6.17;;;2.53;;
60488;SDS011;46331;49.252;8.904;2023-03-21T01:11:23;5.88;;;2.33;;
60488;SDS011;46331;49.252;8.904;2023-03-21T01:12:07;5.95;;;2.30;;
60488;SDS011;46331;49.252;8.904;2023-03-21T01:12:50;6.53;;;2.63;;
60488;SDS011;46331;49.252;8.904;2023-03-21T01:13:31;5.70;;;2.67;;
60488;SDS011;46331;49.252;8.904;2023-03-21T01:14:12;5.55;;;2.33;;
60488;SDS011;46331;49.252;8.904;2023-03-21T01:14:54;6.13;;;2.33;;
60488;SDS011;46331;49.252;8.904;2023-03-21T01:15:34;4.77;;;2.07;;
60488;SDS011;46331;49.252;8.904;2023-03-21T01:16:16;6.65;;;2.58;;
60488;SDS011;46331;49.252;8.904;2023-03-21T01:16:56;5.73;;;2.40;;
60488;SDS011;46331;49.252;8.904;2023-03-21T01:17:37;5.97;;;2.30;;
60488;SDS011;46331;49.252;8.904;2023-03-21T01:18:18;6.13;;;2.20;;
60488;SDS011;46331;49.252;8.904;2023-03-21T01:19:01;6.10;;;2.47;;
60488;SDS011;46331;49.252;8.904;2023-03-21T01:19:43;5.38;;;2.47;;
60488;SDS011;46331;49.252;8.904;2023-03-21T01:20:24;6.57;;;2.65;;
60488;SDS011;46331;49.252;8.904;2023-03-21T01:21:07;6.43;;;2.33;;
60488;SDS011;46331;49.252;8.904;2023-03-21T01:21:50;6.70;;;2.55;;
60488;SDS011;46331;49.252;8.904;2023-03-21T01:22:30;5.67;;;2.17;;
60488;SDS011;46331;49.252;8.904;2023-03-21T01:23:12;6.63;;;2.30;;
60488;SDS011;46331;49.252;8.904;2023-03-21T01:23:54;5.68;;;2.65;;
60488;SDS011;46331;49.252;8.904;2023-03-21T01:24:35;7.77;;;2.50;;
60488;SDS011;46331;49.252;8.904;2023-03-21T01:25:15;6.20;;;2.27;;
60488;SDS011;46331;49.252;8.904;2023-03-21T01:25:56;6.43;;;2.55;;
60488;SDS011;46331;49.252;8.904;2023-03-21T01:26:37;5.75;;;2.28;;
60488;SDS011;46331;49.252;8.904;2023-03-21T01:27:17;5.97;;;2.47;;
60488;SDS011;46331;49.252;8.904;2023-03-21T01:27:58;5.32;;;2.45;;
60488;SDS011;46331;49.252;8.904;2023-03-21T01:28:39;7.73;;;2.47;;
60488;SDS011;46331;49.252;8.904;2023-03-21T01:29:20;5.90;;;2.60;;
60488;SDS011;46331;49.252;8.904;2023-03-21T01:30:02;6.13;;;2.33;;
60488;SDS011;46331;49.252;8.904;2023-03-21T01:30:45;6.85;;;2.65;;
60488;SDS011;46331;49.252;8.904;2023-03-21T01:31:26;6.13;;;2.67;;
60488;SDS011;46331;49.252;8.904;2023-03-21T01:32:07;6.90;;;2.63;;
60488;SDS011;46331;49.252;8.904;2023-03-21T01:32:48;7.80;;;3.80;;
60488;SDS011;46331;49.252;8.904;2023-03-21T01:33:29;6.93;;;3.80;;
60488;SDS011;46331;49.252;8.904;2023-03-21T01:34:11;11.10;;;5.30;;
60488;SDS011;46331;49.252;8.904;2023-03-21T01:34:51;10.33;;;5.63;;
60488;SDS011;46331;49.252;8.904;2023-03-21T01:35:35;10.50;;;6.25;;
60488;SDS011;46331;49.252;8.904;2023-03-21T01:36:18;10.13;;;6.10;;
60488;SDS011;46331;49.252;8.904;2023-03-21T01:37:02;9.90;;;6.30;;
60488;SDS011;46331;49.252;8.904;2023-03-21T01:37:48;10.70;;;5.85;;
60488;SDS011;46331;49.252;8.904;2023-03-21T01:38:29;6.97;;;4.65;;
60488;SDS011;46331;49.252;8.904;2023-03-21T01:39:09;8.07;;;4.30;;
60488;SDS011;46331;49.252;8.904;2023-03-21T01:39:51;9.75;;;4.30;;
60488;SDS011;46331;49.252;8.904;2023-03-21T01:40:32;7.93;;;3.90;;
60488;SDS011;46331;49.252;8.904;2023-03-21T01:41:27;7.25;;;3.60;;
60488;SDS011;46331;49.252;8.904;2023-03-21T01:42:11;7.70;;;3.58;;
60488;SDS011;46331;49.252;8.904;2023-03-21T01:42:53;7.07;;;2.90;;
60488;SDS011;46331;49.252;8.904;2023-03-21T01:43:35;6.03;;;2.67;;
60488;SDS011;46331;49.252;8.904;2023-03-21T01:44:18;7.13;;;2.90;;
60488;SDS011;46331;49.252;8.904;2023-03-21T01:45:02;5.35;;;2.58;;
60488;SDS011;46331;49.252;8.904;2023-03-21T01:47:07;8.30;;;2.97;;
60488;SDS011;46331;49.252;8.904;2023-03-21T01:48:00;6.53;;;2.50;;
60488;SDS011;46331;49.252;8.904;2023-03-21T01:49:02;5.95;;;2.97;;
60488;SDS011;46331;49.252;8.904;2023-03-21T01:49:44;6.75;;;2.60;;
60488;SDS011;46331;49.252;8.904;2023-03-21T01:50:38;6.78;;;2.72;;
60488;SDS011;46331;49.252;8.904;2023-03-21T01:51:35;7.13;;;3.05;;
60488;SDS011;46331;49.252;8.904;2023-03-21T01:52:21;8.52;;;3.00;;
60488;SDS011;46331;49.252;8.904;2023-03-21T01:53:06;6.80;;;2.75;;
60488;SDS011;46331;49.252;8.904;2023-03-21T01:53:48;7.47;;;2.60;;
60488;SDS011;46331;49.252;8.904;2023-03-21T01:54:30;6.17;;;2.60;;
60488;SDS011;46331;49.252;8.904;2023-03-21T01:55:16;7.07;;;2.63;;
60488;SDS011;46331;49.252;8.904;2023-03-21T01:56:11;7.38;;;2.72;;
60488;SDS011;46331;49.252;8.904;2023-03-21T01:57:06;6.15;;;2.65;;
60488;SDS011;46331;49.252;8.904;2023-03-21T01:57:52;7.20;;;2.70;;
60488;SDS011;46331;49.252;8.904;2023-03-21T01:58:35;7.38;;;2.63;;
60488;SDS011;46331;49.252;8.904;2023-03-21T01:59:39;7.68;;;2.70;;
60488;SDS011;46331;49.252;8.904;2023-03-21T02:00:49;7.50;;;3.03;;
60488;SDS011;46331;49.252;8.904;2023-03-21T02:01:45;7.40;;;2.60;;
60488;SDS011;46331;49.252;8.904;2023-03-21T02:02:27;6.22;;;2.67;;
60488;SDS011;46331;49.252;8.904;2023-03-21T02:03:39;7.30;;;2.80;;
60488;SDS011;46331;49.252;8.904;2023-03-21T02:04:36;5.35;;;2.33;;
60488;SDS011;46331;49.252;8.904;2023-03-21T02:07:27;7.55;;;2.72;;
60488;SDS011;46331;49.252;8.904;2023-03-21T02:08:17;7.10;;;2.90;;
60488;SDS011;46331;49.252;8.904;2023-03-21T02:09:00;7.55;;;3.40;;
60488;SDS011;46331;49.252;8.904;2023-03-21T02:09:45;7.10;;;3.05;;
60488;SDS011;46331;49.252;8.904;2023-03-21T02:10:32;9.03;;;3.13;;
60488;SDS011;46331;49.252;8.904;2023-03-21T02:11:14;7.82;;;3.33;;
60488;SDS011;46331;49.252;8.904;2023-03-21T02:11:57;8.73;;;3.60;;
60488;SDS011;46331;49.252;8.904;2023-03-21T02:12:42;6.97;;;3.13;;
60488;SDS011;46331;49.252;8.904;2023-03-21T02:13:24;6.72;;;2.83;;
60488;SDS011;46331;49.252;8.904;2023-03-21T02:14:04;8.52;;;3.03;;
60488;SDS011;46331;49.252;8.904;2023-03-21T02:14:47;8.13;;;3.10;;
60488;SDS011;46331;49.252;8.904;2023-03-21T02:15:36;8.38;;;3.30;;
60488;SDS011;46331;49.252;8.904;2023-03-21T02:18:40;5.68;;;2.92;;
60488;SDS011;46331;49.252;8.904;2023-03-21T02:24:57;7.53;;;3.03;;
60488;SDS011;46331;49.252;8.904;2023-03-21T02:26:03;7.18;;;3.05;;
60488;SDS011;46331;49.252;8.904;2023-03-21T02:27:55;7.30;;;2.97;;
60488;SDS011;46331;49.252;8.904;2023-03-21T02:29:53;6.65;;;2.78;;
60488;SDS011;46331;49.252;8.904;2023-03-21T02:31:54;7.07;;;2.72;;
60488;SDS011;46331;49.252;8.904;2023-03-21T02:34:19;5.57;;;2.30;;
60488;SDS011;46331;49.252;8.904;2023-03-21T02:36:15;5.85;;;2.72;;
60488;SDS011;46331;49.252;8.904;2023-03-21T02:39:40;5.82;;;2.20;;
60488;SDS011;46331;49.252;8.904;2023-03-21T02:41:06;5.45;;;2.20;;
60488;SDS011;46331;49.252;8.904;2023-03-21T02:42:07;6.90;;;2.60;;
60488;SDS011;46331;49.252;8.904;2023-03-21T02:43:55;6.55;;;2.47;;
60488;SDS011;46331;49.252;8.904;2023-03-21T02:45:02;6.13;;;2.40;;
60488;SDS011;46331;49.252;8.904;2023-03-21T02:46:09;5.25;;;2.20;;
60488;SDS011;46331;49.252;8.904;2023-03-21T02:47:38;5.35;;;2.38;;
60488;SDS011;46331;49.252;8.904;2023-03-21T02:48:34;5.50;;;2.37;;
60488;SDS011;46331;49.252;8.904;2023-03-21T02:50:46;7.50;;;2.50;;
60488;SDS011;46331;49.252;8.904;2023-03-21T02:51:32;5.90;;;2.30;;
60488;SDS011;46331;49.252;8.904;2023-03-21T02:52:17;4.97;;;2.08;;
60488;SDS011;46331;49.252;8.904;2023-03-21T02:53:03;7.95;;;2.55;;
60488;SDS011;46331;49.252;8.904;2023-03-21T02:53:50;5.63;;;2.03;;
60488;SDS011;46331;49.252;8.904;2023-03-21T02:54:37;5.68;;;2.45;;
60488;SDS011;46331;49.252;8.904;2023-03-21T02:55:22;5.32;;;2.67;;
60488;SDS011;46331;49.252;8.904;2023-03-21T02:56:12;6.73;;;2.43;;
60488;SDS011;46331;49.252;8.904;2023-03-21T02:56:58;6.85;;;2.28;;
60488;SDS011;46331;49.252;8.904;2023-03-21T02:57:43;5.93;;;2.15;;
60488;SDS011;46331;49.252;8.904;2023-03-21T02:58:29;5.75;;;2.10;;
60488;SDS011;46331;49.252;8.904;2023-03-21T02:59:12;5.75;;;2.35;;
60488;SDS011;46331;49.252;8.904;2023-03-21T02:59:55;5.20;;;2.20;;
60488;SDS011;46331;49.252;8.904;2023-03-21T03:00:44;5.30;;;2.40;;
60488;SDS011;46331;49.252;8.904;2023-03-21T03:01:34;6.60;;;2.25;;
60488;SDS011;46331;49.252;8.904;2023-03-21T03:02:15;9.20;;;2.40;;
60488;SDS011;46331;49.252;8.904;2023-03-21T03:02:59;5.68;;;2.20;;
60488;SDS011;46331;49.252;8.904;2023-03-21T03:03:41;6.07;;;2.63;;
60488;SDS011;46331;49.252;8.904;2023-03-21T03:04:23;4.75;;;2.10;;
60488;SDS011;46331;49.252;8.904;2023-03-21T03:05:17;5.93;;;2.40;;
60488;SDS011;46331;49.252;8.904;2023-03-21T03:06:00;6.07;;;2.33;;
60488;SDS011;46331;49.252;8.904;2023-03-21T03:06:50;6.25;;;2.60;;
60488;SDS011;46331;49.252;8.904;2023-03-21T03:07:39;5.72;;;2.38;;
60488;SDS011;46331;49.252;8.904;2023-03-21T03:10:07;7.18;;;2.10;;
60488;SDS011;46331;49.252;8.904;2023-03-21T03:15:21;4.75;;;2.00;;
60488;SDS011;46331;49.252;8.904;2023-03-21T03:19:26;5.05;;;2.25;;
60488;SDS011;46331;49.252;8.904;2023-03-21T03:20:20;6.80;;;2.58;;
60488;SDS011;46331;49.252;8.904;2023-03-21T03:21:50;7.10;;;2.20;;
60488;SDS011;46331;49.252;8.904;2023-03-21T03:22:20;6.40;;;2.40;;
60488;SDS011;46331;49.252;8.904;2023-03-21T03:24:01;6.60;;;2.45;;
60488;SDS011;46331;49.252;8.904;2023-03-21T03:24:45;6.50;;;2.15;;
60488;SDS011;46331;49.252;8.904;2023-03-21T03:27:16;5.88;;;2.17;;
60488;SDS011;46331;49.252;8.904;2023-03-21T03:28:03;6.82;;;2.50;;
60488;SDS011;46331;49.252;8.904;2023-03-21T03:28:50;6.55;;;2.30;;
60488;SDS011;46331;49.252;8.904;2023-03-21T03:29:34;7.85;;;2.55;;
60488;SDS011;46331;49.252;8.904;2023-03-21T03:30:18;5.95;;;2.22;;
60488;SDS011;46331;49.252;8.904;2023-03-21T03:30:59;6.97;;;2.53;;
60488;SDS011;46331;49.252;8.904;2023-03-21T03:31:50;5.90;;;2.45;;
60488;SDS011;46331;49.252;8.904;2023-03-21T03:32:39;7.07;;;2.58;;
60488;SDS011;46331;49.252;8.904;2023-03-21T03:33:27;6.85;;;2.45;;
60488;SDS011;46331;49.252;8.904;2023-03-21T03:34:12;8.95;;;2.58;;
60488;SDS011;46331;49.252;8.904;2023-03-21T03:34:59;5.93;;;2.40;;
60488;SDS011;46331;49.252;8.904;2023-03-21T03:35:44;5.45;;;2.33;;
60488;SDS011;46331;49.252;8.904;2023-03-21T03:36:27;5.30;;;2.50;;
60488;SDS011;46331;49.252;8.904;2023-03-21T03:37:20;7.35;;;2.60;;
60488;SDS011;46331;49.252;8.904;2023-03-21T03:38:05;7.70;;;2.55;;
60488;SDS011;46331;49.252;8.904;2023-03-21T03:38:47;6.23;;;2.87;;
60488;SDS011;46331;49.252;8.904;2023-03-21T03:39:35;5.78;;;2.72;;
60488;SDS011;46331;49.252;8.904;2023-03-21T03:40:30;7.30;;;2.75;;
60488;SDS011;46331;49.252;8.904;2023-03-21T03:41:26;6.55;;;2.78;;
60488;SDS011;46331;49.252;8.904;2023-03-21T03:42:14;6.82;;;3.00;;
60488;SDS011;46331;49.252;8.904;2023-03-21T03:43:20;7.70;;;3.22;;
60488;SDS011;46331;49.252;8.904;2023-03-21T03:44:06;6.35;;;2.80;;
60488;SDS011;46331;49.252;8.904;2023-03-21T03:44:53;6.45;;;2.60;;
60488;SDS011;46331;49.252;8.904;2023-03-21T03:45:36;5.88;;;2.75;;
60488;SDS011;46331;49.252;8.904;2023-03-21T03:48:27;7.78;;;2.60;;
60488;SDS011;46331;49.252;8.904;2023-03-21T03:49:14;6.22;;;2.67;;
60488;SDS011;46331;49.252;8.904;2023-03-21T03:50:55;7.43;;;2.70;;
60488;SDS011;46331;49.252;8.904;2023-03-21T03:52:30;6.10;;;2.90;;
60488;SDS011;46331;49.252;8.904;2023-03-21T03:53:24;6.65;;;2.70;;
60488;SDS011;46331;49.252;8.904;2023-03-21T03:54:14;7.85;;;2.75;;
60488;SDS011;46331;49.252;8.904;2023-03-21T03:55:00;7.57;;;2.88;;
60488;SDS011;46331;49.252;8.904;2023-03-21T03:55:45;5.47;;;2.42;;
60488;SDS011;46331;49.252;8.904;2023-03-21T03:56:30;6.50;;;2.80;;
60488;SDS011;46331;49.252;8.904;2023-03-21T03:57:11;6.40;;;3.28;;
60488;SDS011;46331;49.252;8.904;2023-03-21T03:57:53;7.78;;;3.45;;
60488;SDS011;46331;49.252;8.904;2023-03-21T03:58:34;8.90;;;3.20;;
60488;SDS011;46331;49.252;8.904;2023-03-21T03:59:18;7.38;;;3.10;;
60488;SDS011;46331;49.252;8.904;2023-03-21T04:00:27;7.72;;;2.85;;
60488;SDS011;46331;49.252;8.904;2023-03-21T04:01:12;5.32;;;2.45;;
60488;SDS011;46331;49.252;8.904;2023-03-21T04:01:53;6.72;;;3.00;;
60488;SDS011;46331;49.252;8.904;2023-03-21T04:02:34;6.97;;;2.77;;
60488;SDS011;46331;49.252;8.904;2023-03-21T04:03:16;9.77;;;2.60;;
60488;SDS011;46331;49.252;8.904;2023-03-21T04:03:58;6.85;;;2.55;;
60488;SDS011;46331;49.252;8.904;2023-03-21T04:04:39;6.63;;;2.42;;
60488;SDS011;46331;49.252;8.904;2023-03-21T04:05:21;7.32;;;2.75;;
60488;SDS011;46331;49.252;8.904;2023-03-21T04:06:03;6.70;;;2.63;;
60488;SDS011;46331;49.252;8.904;2023-03-21T04:06:44;7.03;;;2.67;;
60488;SDS011;46331;49.252;8.904;2023-03-21T04:07:33;7.28;;;2.38;;
60488;SDS011;46331;49.252;8.904;2023-03-21T04:08:15;8.52;;;2.60;;
60488;SDS011;46331;49.252;8.904;2023-03-21T04:09:00;5.80;;;2.13;;
60488;SDS011;46331;49.252;8.904;2023-03-21T04:09:43;7.13;;;2.40;;
60488;SDS011;46331;49.252;8.904;2023-03-21T04:10:26;8.00;;;2.67;;
60488;SDS011;46331;49.252;8.904;2023-03-21T04:11:07;5.45;;;2.33;;
60488;SDS011;46331;49.252;8.904;2023-03-21T04:11:52;6.63;;;2.45;;
60488;SDS011;46331;49.252;8.904;2023-03-21T04:12:33;7.30;;;2.40;;
60488;SDS011;46331;49.252;8.904;2023-03-21T04:13:32;5.87;;;2.43;;
60488;SDS011;46331;49.252;8.904;2023-03-21T04:14:17;7.40;;;2.40;;
60488;SDS011;46331;49.252;8.904;2023-03-21T04:14:59;6.32;;;2.60;;
60488;SDS011;46331;49.252;8.904;2023-03-21T04:15:39;6.03;;;2.80;;
60488;SDS011;46331;49.252;8.904;2023-03-21T04:16:26;8.93;;;2.95;;
60488;SDS011;46331;49.252;8.904;2023-03-21T04:17:07;10.60;;;2.92;;
60488;SDS011;46331;49.252;8.904;2023-03-21T04:17:48;8.33;;;2.97;;
60488;SDS011;46331;49.252;8.904;2023-03-21T04:18:29;7.97;;;2.95;;
60488;SDS011;46331;49.252;8.904;2023-03-21T04:19:12;7.10;;;2.80;;
60488;SDS011;46331;49.252;8.904;2023-03-21T04:19:53;6.88;;;3.00;;
60488;SDS011;46331;49.252;8.904;2023-03-21T04:20:36;8.30;;;2.87;;
60488;SDS011;46331;49.252;8.904;2023-03-21T04:21:16;7.20;;;3.00;;
60488;SDS011;46331;49.252;8.904;2023-03-21T04:21:57;6.88;;;2.65;;
60488;SDS011;46331;49.252;8.904;2023-03-21T04:22:38;6.33;;;2.80;;
60488;SDS011;46331;49.252;8.904;2023-03-21T04:23:19;7.78;;;2.70;;
60488;SDS011;46331;49.252;8.904;2023-03-21T04:24:01;6.45;;;2.50;;
60488;SDS011;46331;49.252;8.904;2023-03-21T04:24:42;8.25;;;3.22;;
60488;SDS011;46331;49.252;8.904;2023-03-21T04:25:23;5.47;;;2.83;;
60488;SDS011;46331;49.252;8.904;2023-03-21T04:26:07;8.48;;;2.70;;
60488;SDS011;46331;49.252;8.904;2023-03-21T04:26:52;6.40;;;2.55;;
60488;SDS011;46331;49.252;8.904;2023-03-21T04:27:51;7.85;;;3.13;;
60488;SDS011;46331;49.252;8.904;2023-03-21T04:29:02;7.40;;;2.65;;
60488;SDS011;46331;49.252;8.904;2023-03-21T04:30:03;7.35;;;2.72;;
60488;SDS011;46331;49.252;8.904;2023-03-21T04:31:06;6.18;;;2.78;;
60488;SDS011;46331;49.252;8.904;2023-03-21T04:31:55;5.40;;;2.55;;
60488;SDS011;46331;49.252;8.904;2023-03-21T04:32:35;7.00;;;2.70;;
60488;SDS011;46331;49.252;8.904;2023-03-21T04:33:23;7.00;;;2.80;;
60488;SDS011;46331;49.252;8.904;2023-03-21T04:34:09;6.75;;;2.75;;
60488;SDS011;46331;49.252;8.904;2023-03-21T04:34:54;7.05;;;2.72;;
60488;SDS011;46331;49.252;8.904;2023-03-21T04:35:36;9.95;;;3.08;;
60488;SDS011;46331;49.252;8.904;2023-03-21T04:36:18;6.85;;;2.90;;
60488;SDS011;46331;49.252;8.904;2023-03-21T04:37:09;6.40;;;2.70;;
60488;SDS011;46331;49.252;8.904;2023-03-21T04:37:54;6.65;;;2.90;;
60488;SDS011;46331;49.252;8.904;2023-03-21T04:38:35;7.25;;;2.85;;
60488;SDS011;46331;49.252;8.904;2023-03-21T04:39:17;8.00;;;2.87;;
60488;SDS011;46331;49.252;8.904;2023-03-21T04:40:02;6.88;;;2.88;;
60488;SDS011;46331;49.252;8.904;2023-03-21T04:40:46;6.07;;;2.50;;
60488;SDS011;46331;49.252;8.904;2023-03-21T04:41:27;7.07;;;2.72;;
60488;SDS011;46331;49.252;8.904;2023-03-21T04:42:08;5.88;;;2.53;;
60488;SDS011;46331;49.252;8.904;2023-03-21T04:42:48;6.03;;;2.70;;
60488;SDS011;46331;49.252;8.904;2023-03-21T04:43:29;7.90;;;2.85;;
60488;SDS011;46331;49.252;8.904;2023-03-21T04:44:12;8.60;;;2.83;;
60488;SDS011;46331;49.252;8.904;2023-03-21T04:44:54;5.43;;;2.40;;
60488;SDS011;46331;49.252;8.904;2023-03-21T04:45:34;7.43;;;2.60;;
60488;SDS011;46331;49.252;8.904;2023-03-21T04:46:15;7.60;;;2.53;;
60488;SDS011;46331;49.252;8.904;2023-03-21T04:46:55;6.07;;;2.70;;
60488;SDS011;46331;49.252;8.904;2023-03-21T04:47:36;5.72;;;2.60;;
60488;SDS011;46331;49.252;8.904;2023-03-21T04:48:17;8.20;;;2.50;;
60488;SDS011;46331;49.252;8.904;2023-03-21T04:48:58;7.40;;;2.50;;
60488;SDS011;46331;49.252;8.904;2023-03-21T04:49:41;8.73;;;2.45;;
60488;SDS011;46331;49.252;8.904;2023-03-21T04:50:24;7.15;;;2.60;;
60488;SDS011;46331;49.252;8.904;2023-03-21T04:51:05;8.07;;;2.57;;
60488;SDS011;46331;49.252;8.904;2023-03-21T04:51:45;6.30;;;2.67;;
60488;SDS011;46331;49.252;8.904;2023-03-21T04:52:31;7.63;;;2.60;;
60488;SDS011;46331;49.252;8.904;2023-03-21T04:53:11;7.22;;;2.50;;
60488;SDS011;46331;49.252;8.904;2023-03-21T04:53:52;6.10;;;2.47;;
60488;SDS011;46331;49.252;8.904;2023-03-21T04:54:36;7.32;;;2.80;;
60488;SDS011;46331;49.252;8.904;2023-03-21T04:55:17;5.30;;;2.13;;
60488;SDS011;46331;49.252;8.904;2023-03-21T04:56:00;6.25;;;2.67;;
60488;SDS011;46331;49.252;8.904;2023-03-21T04:56:41;8.10;;;2.80;;
60488;SDS011;46331;49.252;8.904;2023-03-21T04:57:22;5.95;;;2.42;;
60488;SDS011;46331;49.252;8.904;2023-03-21T04:58:03;6.07;;;2.50;;
60488;SDS011;46331;49.252;8.904;2023-03-21T04:58:44;7.15;;;2.70;;
60488;SDS011;46331;49.252;8.904;2023-03-21T04:59:24;6.30;;;2.50;;
60488;SDS011;46331;49.252;8.904;2023-03-21T05:00:06;5.07;;;2.20;;
60488;SDS011;46331;49.252;8.904;2023-03-21T05:00:52;8.23;;;3.00;;
60488;SDS011;46331;49.252;8.904;2023-03-21T05:01:34;7.30;;;2.67;;
60488;SDS011;46331;49.252;8.904;2023-03-21T05:02:17;6.28;;;2.53;;
60488;SDS011;46331;49.252;8.904;2023-03-21T05:02:57;6.07;;;2.50;;
60488;SDS011;46331;49.252;8.904;2023-03-21T05:03:40;6.05;;;2.28;;
60488;SDS011;46331;49.252;8.904;2023-03-21T05:04:21;6.10;;;2.70;;
60488;SDS011;46331;49.252;8.904;2023-03-21T05:05:02;6.68;;;2.78;;
60488;SDS011;46331;49.252;8.904;2023-03-21T05:05:44;9.23;;;2.50;;
60488;SDS011;46331;49.252;8.904;2023-03-21T05:06:25;6.63;;;2.75;;
60488;SDS011;46331;49.252;8.904;2023-03-21T05:07:07;5.45;;;2.50;;
60488;SDS011;46331;49.252;8.904;2023-03-21T05:07:47;7.47;;;2.50;;
60488;SDS011;46331;49.252;8.904;2023-03-21T05:08:28;5.35;;;2.30;;